createdAt,value
2018-09-14T00:00:07.227Z,10.04
2018-09-14T00:02:36.296Z,10.10
2018-09-14T00:05:05.462Z,10.13
2018-09-14T00:07:34.584Z,10.15
2018-09-14T00:10:03.591Z,10.18
2018-09-14T00:12:32.931Z,10.21
2018-09-14T00:15:01.984Z,10.23
2018-09-14T00:17:31.076Z,10.25
2018-09-14T00:20:00.356Z,10.27
2018-09-14T00:22:29.343Z,10.29
2018-09-14T00:24:58.320Z,10.37
2018-09-14T00:27:27.284Z,10.44
2018-09-14T00:29:56.559Z,10.51
2018-09-14T00:32:25.515Z,10.53
2018-09-14T00:34:54.509Z,10.52
2018-09-14T00:37:23.407Z,10.48
2018-09-14T00:39:52.409Z,10.46
2018-09-14T00:42:21.471Z,10.44
2018-09-14T00:44:50.453Z,10.44
2018-09-14T00:47:19.464Z,10.38
2018-09-14T00:49:48.584Z,10.34
2018-09-14T00:52:17.665Z,10.27
2018-09-14T00:54:46.612Z,10.24
2018-09-14T00:57:15.517Z,10.16
2018-09-14T00:59:45.877Z,10.13
2018-09-14T01:02:14.772Z,10.06
2018-09-14T01:04:43.662Z,9.96
2018-09-14T01:07:12.457Z,9.69
2018-09-14T01:09:41.306Z,9.34
2018-09-14T01:12:10.224Z,9.05
2018-09-14T01:14:39.079Z,8.77
2018-09-14T01:17:08.113Z,8.58
2018-09-14T01:19:36.972Z,8.45
2018-09-14T01:22:05.867Z,8.34
2018-09-14T01:24:34.841Z,8.24
2018-09-14T01:27:03.630Z,8.17
2018-09-14T01:29:32.522Z,8.15
2018-09-14T01:32:01.334Z,8.09
2018-09-14T01:34:30.316Z,8.08
2018-09-14T01:36:59.264Z,8.00
2018-09-14T01:39:28.095Z,7.95
2018-09-14T01:41:57.085Z,7.86
2018-09-14T01:44:26.116Z,7.84
2018-09-14T01:46:54.909Z,7.81
2018-09-14T01:49:23.793Z,7.80
2018-09-14T01:51:52.755Z,7.78
2018-09-14T01:54:21.636Z,7.76
2018-09-14T01:56:50.518Z,7.68
2018-09-14T01:59:20.405Z,7.63
2018-09-14T02:01:49.259Z,7.60
2018-09-14T02:04:18.303Z,7.63
2018-09-14T02:06:47.244Z,7.62
2018-09-14T02:09:16.210Z,7.59
2018-09-14T02:11:45.129Z,7.56
2018-09-14T02:14:14.064Z,7.56
2018-09-14T02:16:42.849Z,7.53
2018-09-14T02:19:11.680Z,7.55
2018-09-14T02:21:40.595Z,7.55
2018-09-14T02:24:09.565Z,7.49
2018-09-14T02:26:38.545Z,7.42
2018-09-14T02:29:07.432Z,7.35
2018-09-14T02:31:36.240Z,7.30
2018-09-14T02:34:05.256Z,7.27
2018-09-14T02:36:34.140Z,7.29
2018-09-14T02:39:03.197Z,7.26
2018-09-14T02:41:32.098Z,7.27
2018-09-14T02:44:01.028Z,7.21
2018-09-14T02:46:29.997Z,7.18
2018-09-14T02:48:58.977Z,7.22
2018-09-14T02:51:27.905Z,7.27
2018-09-14T02:53:56.894Z,7.24
2018-09-14T02:56:25.791Z,7.17
2018-09-14T02:58:54.776Z,7.09
2018-09-14T03:01:23.569Z,6.98
2018-09-14T03:03:52.405Z,6.92
2018-09-14T03:06:21.331Z,6.89
2018-09-14T03:08:50.167Z,6.93
2018-09-14T03:11:19.119Z,6.90
2018-09-14T03:13:48.009Z,6.84
2018-09-14T03:16:17.132Z,6.80
2018-09-14T03:18:46.128Z,6.75
2018-09-14T03:21:15.245Z,6.74
2018-09-14T03:23:44.492Z,6.79
2018-09-14T03:26:13.740Z,6.83
2018-09-14T03:28:42.598Z,6.88
2018-09-14T03:31:11.410Z,6.84
2018-09-14T03:33:40.245Z,6.77
2018-09-14T03:36:09.140Z,6.74
2018-09-14T03:38:38.089Z,6.76
2018-09-14T03:41:06.972Z,6.75
2018-09-14T03:43:35.884Z,6.73
2018-09-14T03:46:04.790Z,6.69
2018-09-14T03:48:33.627Z,6.69
2018-09-14T03:51:02.505Z,6.71
2018-09-14T03:53:31.437Z,6.68
2018-09-14T03:56:00.352Z,6.64
2018-09-14T03:58:29.317Z,6.62
2018-09-14T04:00:58.280Z,6.60
2018-09-14T04:03:27.224Z,6.57
2018-09-14T04:05:56.153Z,6.54
2018-09-14T04:08:25.060Z,6.54
2018-09-14T04:10:53.921Z,6.53
2018-09-14T04:13:22.837Z,6.54
2018-09-14T04:15:51.819Z,6.54
2018-09-14T04:18:20.793Z,6.54
2018-09-14T04:20:49.696Z,6.60
2018-09-14T04:23:18.577Z,6.67
2018-09-14T04:25:47.581Z,6.72
2018-09-14T04:28:17.827Z,6.69
2018-09-14T04:30:46.843Z,6.64
2018-09-14T04:33:15.865Z,6.58
2018-09-14T04:35:44.776Z,6.61
2018-09-14T04:38:13.880Z,6.65
2018-09-14T04:40:42.853Z,6.67
2018-09-14T04:43:11.738Z,6.67
2018-09-14T04:45:40.799Z,6.63
2018-09-14T04:48:09.829Z,6.57
2018-09-14T04:50:38.815Z,6.52
2018-09-14T04:53:07.763Z,6.50
2018-09-14T04:55:36.691Z,6.55
2018-09-14T04:58:05.804Z,6.57
2018-09-14T05:00:34.768Z,6.62
2018-09-14T05:03:03.789Z,6.64
2018-09-14T05:05:32.728Z,6.59
2018-09-14T05:08:01.735Z,6.53
2018-09-14T05:10:30.682Z,6.53
2018-09-14T05:12:59.629Z,6.58
2018-09-14T05:15:28.674Z,6.61
2018-09-14T05:17:57.791Z,6.63
2018-09-14T05:20:26.879Z,6.65
2018-09-14T05:22:55.752Z,6.67
2018-09-14T05:25:24.794Z,6.69
2018-09-14T05:27:53.744Z,6.72
2018-09-14T05:30:22.866Z,6.74
2018-09-14T05:32:51.884Z,6.78
2018-09-14T05:35:20.864Z,6.79
2018-09-14T05:37:49.841Z,6.79
2018-09-14T05:40:18.784Z,6.79
2018-09-14T05:42:47.958Z,6.86
2018-09-14T05:45:17.008Z,6.98
2018-09-14T05:47:45.847Z,7.07
2018-09-14T05:50:14.883Z,7.16
2018-09-14T05:52:43.889Z,7.26
2018-09-14T05:55:12.960Z,7.36
2018-09-14T05:57:41.915Z,7.45
2018-09-14T06:00:11.089Z,7.54
2018-09-14T06:02:39.998Z,7.61
2018-09-14T06:05:08.988Z,7.69
2018-09-14T06:07:37.878Z,7.82
2018-09-14T06:10:07.488Z,7.92
2018-09-14T06:12:36.373Z,8.05
2018-09-14T06:15:05.431Z,8.19
2018-09-14T06:17:34.420Z,8.30
2018-09-14T06:20:03.495Z,8.42
2018-09-14T06:22:32.605Z,8.58
2018-09-14T06:25:01.427Z,8.74
2018-09-14T06:27:30.475Z,8.92
2018-09-14T06:29:59.454Z,9.10
2018-09-14T06:32:28.788Z,9.26
2018-09-14T06:34:57.745Z,9.42
2018-09-14T06:37:26.716Z,9.57
2018-09-14T06:39:55.585Z,9.76
2018-09-14T06:42:24.602Z,9.91
2018-09-14T06:44:53.615Z,10.05
2018-09-14T06:47:22.545Z,10.19
2018-09-14T06:49:57.167Z,10.32
2018-09-14T06:52:26.125Z,10.39
2018-09-14T06:54:55.189Z,10.49
2018-09-14T06:57:24.109Z,10.61
2018-09-14T06:59:55.276Z,10.71
2018-09-14T07:02:24.344Z,10.77
2018-09-14T07:04:53.393Z,10.87
2018-09-14T07:07:22.377Z,10.96
2018-09-14T07:09:52.457Z,11.01
2018-09-14T07:12:21.397Z,11.10
2018-09-14T07:14:50.320Z,11.18
2018-09-14T07:17:19.356Z,11.26
2018-09-14T07:19:48.255Z,11.38
2018-09-14T07:22:17.393Z,11.51
2018-09-14T07:24:46.407Z,11.63
2018-09-14T07:27:15.348Z,11.73
2018-09-14T07:29:44.386Z,11.81
2018-09-14T07:32:31.314Z,11.91
2018-09-14T07:35:00.275Z,12.01
2018-09-14T07:37:29.200Z,12.09
2018-09-14T07:39:58.284Z,12.18
2018-09-14T07:42:27.324Z,12.27
2018-09-14T07:44:56.165Z,12.38
2018-09-14T07:47:25.223Z,12.52
2018-09-14T07:49:54.113Z,12.62
2018-09-14T07:52:30.752Z,12.77
2018-09-14T07:54:59.711Z,12.91
2018-09-14T07:57:28.701Z,13.01
2018-09-14T07:59:57.719Z,13.06
2018-09-14T08:02:27.697Z,13.11
2018-09-14T08:04:56.672Z,13.17
2018-09-14T08:07:25.781Z,13.24
2018-09-14T08:09:54.721Z,13.31
2018-09-14T08:12:30.830Z,13.31
2018-09-14T08:14:59.753Z,13.38
2018-09-14T08:17:28.796Z,13.46
2018-09-14T08:19:57.868Z,13.48
2018-09-14T08:22:27.997Z,13.64
2018-09-14T08:24:57.149Z,13.70
2018-09-14T08:27:26.238Z,13.76
2018-09-14T08:29:55.120Z,13.89
2018-09-14T08:32:26.227Z,13.98
2018-09-14T08:34:55.216Z,14.07
2018-09-14T08:37:24.313Z,14.20
2018-09-14T08:39:53.265Z,14.32
2018-09-14T08:42:24.218Z,14.40
2018-09-14T08:44:53.448Z,14.46
2018-09-14T08:47:22.447Z,14.48
2018-09-14T08:49:51.465Z,14.55
2018-09-14T08:52:47.171Z,14.63
2018-09-14T08:55:16.178Z,14.71
2018-09-14T08:57:45.182Z,14.80
2018-09-14T09:00:17.206Z,14.88
2018-09-14T09:03:03.447Z,14.91
2018-09-14T09:05:32.471Z,15.04
2018-09-14T09:08:01.540Z,15.19
2018-09-14T09:10:30.854Z,15.28
2018-09-14T09:12:59.809Z,15.35
2018-09-14T09:15:28.989Z,15.40
2018-09-14T09:17:59.697Z,15.48
2018-09-14T09:20:38.966Z,15.64
2018-09-14T09:23:15.613Z,15.76
2018-09-14T09:25:44.557Z,15.80
2018-09-14T09:28:13.441Z,15.89
2018-09-14T09:30:42.365Z,16.07
2018-09-14T09:33:11.364Z,16.23
2018-09-14T09:35:45.858Z,16.31
2018-09-14T09:38:18.172Z,16.35
2018-09-14T09:40:47.137Z,16.58
2018-09-14T09:43:24.979Z,16.72
2018-09-14T09:45:53.824Z,16.79
2018-09-14T09:48:22.864Z,16.84
2018-09-14T09:50:52.826Z,16.98
2018-09-14T09:53:23.788Z,17.13
2018-09-14T09:55:53.728Z,17.31
2018-09-14T09:58:22.608Z,17.47
2018-09-14T10:00:57.478Z,17.51
2018-09-14T10:03:43.675Z,17.64
2018-09-14T10:06:17.575Z,17.76
2018-09-14T10:08:46.608Z,18.10
2018-09-14T10:11:15.535Z,18.55
2018-09-14T10:13:48.548Z,18.92
2018-09-14T10:16:17.525Z,19.12
2018-09-14T10:18:46.385Z,18.97
2018-09-14T10:21:15.373Z,18.96
2018-09-14T10:24:07.916Z,18.98
2018-09-14T10:26:36.811Z,18.96
2018-09-14T10:29:05.762Z,18.95
2018-09-14T10:31:47.238Z,18.98
2018-09-14T10:34:16.273Z,19.19
2018-09-14T10:36:45.181Z,19.48
2018-09-14T10:39:14.124Z,19.58
2018-09-14T10:41:52.360Z,19.64
2018-09-14T10:44:21.353Z,19.28
2018-09-14T10:46:50.459Z,19.17
2018-09-14T10:49:19.425Z,19.35
2018-09-14T10:51:50.589Z,19.72
2018-09-14T10:54:19.563Z,20.09
2018-09-14T10:56:48.466Z,20.48
2018-09-14T10:59:17.430Z,20.34
2018-09-14T11:01:46.324Z,20.16
2018-09-14T11:04:15.406Z,20.17
2018-09-14T11:06:44.515Z,20.33
2018-09-14T11:09:14.462Z,20.36
2018-09-14T11:11:43.545Z,20.39
2018-09-14T11:14:15.970Z,20.49
2018-09-14T11:16:44.810Z,20.37
2018-09-14T11:19:13.768Z,20.26
2018-09-14T11:21:42.625Z,20.20
2018-09-14T11:24:32.013Z,20.19
2018-09-14T11:27:00.920Z,20.40
2018-09-14T11:29:29.904Z,20.61
2018-09-14T11:31:58.824Z,20.70
2018-09-14T11:34:27.801Z,20.80
2018-09-14T11:36:56.794Z,21.07
2018-09-14T11:39:25.693Z,21.40
2018-09-14T11:41:54.668Z,21.70
2018-09-14T11:44:44.473Z,21.89
2018-09-14T11:47:13.452Z,21.93
2018-09-14T11:49:42.361Z,21.99
2018-09-14T11:52:11.324Z,21.99
2018-09-14T11:54:40.274Z,21.56
2018-09-14T11:57:09.130Z,21.40
2018-09-14T11:59:37.968Z,21.60
2018-09-14T12:02:06.969Z,21.68
2018-09-14T12:04:36.929Z,22.09
2018-09-14T12:07:05.789Z,22.46
2018-09-14T12:09:34.772Z,22.58
2018-09-14T12:12:03.809Z,22.55
2018-09-14T12:14:33.893Z,22.57
2018-09-14T12:17:02.811Z,22.63
2018-09-14T12:19:31.811Z,22.62
2018-09-14T12:22:00.748Z,22.62
2018-09-14T12:24:29.728Z,22.80
2018-09-14T12:26:58.655Z,23.06
2018-09-14T12:29:27.711Z,23.14
2018-09-14T12:31:56.687Z,23.34
2018-09-14T12:34:27.617Z,23.34
2018-09-14T12:36:56.477Z,23.38
2018-09-14T12:39:25.477Z,23.00
2018-09-14T12:41:54.431Z,22.81
2018-09-14T12:44:24.405Z,22.60
2018-09-14T12:46:53.288Z,22.51
2018-09-14T12:49:22.175Z,22.56
2018-09-14T12:51:51.093Z,22.22
2018-09-14T12:54:20.236Z,22.44
2018-09-14T12:56:49.212Z,22.94
2018-09-14T12:59:18.154Z,23.46
2018-09-14T13:01:47.014Z,23.96
2018-09-14T13:04:19.737Z,23.83
2018-09-14T13:06:48.632Z,23.58
2018-09-14T13:09:17.537Z,23.42
2018-09-14T13:11:46.531Z,23.88
2018-09-14T13:14:20.026Z,25.46
2018-09-14T13:16:49.295Z,27.98
2018-09-14T13:19:18.271Z,29.90
2018-09-14T13:21:47.169Z,31.09
2018-09-14T13:24:18.237Z,31.38
2018-09-14T13:26:47.073Z,29.09
2018-09-14T13:29:16.014Z,28.49
2018-09-14T13:31:45.009Z,29.01
2018-09-14T13:34:21.732Z,28.79
2018-09-14T13:36:50.961Z,30.20
2018-09-14T13:39:19.860Z,31.38
2018-09-14T13:41:48.708Z,30.80
2018-09-14T13:44:18.680Z,31.16
2018-09-14T13:46:47.627Z,30.26
2018-09-14T13:49:16.566Z,27.60
2018-09-14T13:51:45.561Z,25.99
2018-09-14T13:54:14.647Z,27.82
2018-09-14T13:56:43.822Z,30.17
2018-09-14T13:59:12.817Z,31.77
2018-09-14T14:01:41.863Z,33.14
2018-09-14T14:04:17.721Z,32.89
2018-09-14T14:06:46.825Z,31.68
2018-09-14T14:09:15.681Z,31.36
2018-09-14T14:11:44.547Z,32.69
2018-09-14T14:14:14.533Z,33.15
2018-09-14T14:16:43.438Z,32.25
2018-09-14T14:19:12.413Z,32.19
2018-09-14T14:21:41.336Z,32.65
2018-09-14T14:24:10.265Z,33.57
2018-09-14T14:26:39.167Z,34.47
2018-09-14T14:29:08.043Z,35.44
2018-09-14T14:31:37.013Z,35.79
2018-09-14T14:34:07.023Z,34.43
2018-09-14T14:36:36.053Z,33.42
2018-09-14T14:39:06.233Z,33.07
2018-09-14T14:41:35.206Z,32.58
2018-09-14T14:44:04.144Z,31.02
2018-09-14T14:46:33.164Z,29.60
2018-09-14T14:49:02.232Z,28.22
2018-09-14T14:51:31.125Z,27.96
2018-09-14T14:54:00.133Z,27.64
2018-09-14T14:56:29.105Z,29.30
2018-09-14T14:58:58.006Z,31.27
2018-09-14T15:01:26.851Z,31.23
2018-09-14T15:03:55.738Z,31.33
2018-09-14T15:06:26.697Z,30.61
2018-09-14T15:08:55.593Z,29.80
2018-09-14T15:11:24.557Z,30.72
2018-09-14T15:13:53.481Z,30.67
2018-09-14T15:16:23.637Z,29.92
2018-09-14T15:18:52.470Z,30.78
2018-09-14T15:21:21.446Z,31.54
2018-09-14T15:23:50.453Z,31.77
2018-09-14T15:26:19.461Z,30.96
2018-09-14T15:28:48.380Z,30.14
2018-09-14T15:31:17.302Z,30.27
2018-09-14T15:33:46.263Z,30.23
2018-09-14T15:36:17.262Z,28.64
2018-09-14T15:38:46.169Z,27.08
2018-09-14T15:41:15.197Z,24.58
2018-09-14T15:43:44.167Z,23.44
2018-09-14T15:46:15.143Z,22.95
2018-09-14T15:48:44.027Z,22.53
2018-09-14T15:51:12.906Z,22.35
2018-09-14T15:53:41.842Z,22.22
2018-09-14T15:56:11.792Z,22.37
2018-09-14T15:58:40.649Z,22.37
2018-09-14T16:01:09.532Z,22.77
2018-09-14T16:03:38.461Z,23.05
2018-09-14T16:06:08.407Z,22.98
2018-09-14T16:08:37.275Z,23.14
2018-09-14T16:11:07.011Z,23.63
2018-09-14T16:13:35.963Z,23.36
2018-09-14T16:16:05.964Z,22.90
2018-09-14T16:18:34.829Z,22.74
2018-09-14T16:21:03.869Z,22.59
2018-09-14T16:23:32.799Z,22.61
2018-09-14T16:26:02.805Z,22.43
2018-09-14T16:28:31.695Z,22.82
2018-09-14T16:31:00.551Z,22.70
2018-09-14T16:33:29.525Z,22.32
2018-09-14T16:35:58.372Z,22.17
2018-09-14T16:38:27.269Z,22.02
2018-09-14T16:40:56.213Z,21.95
2018-09-14T16:43:25.155Z,21.96
2018-09-14T16:45:55.132Z,21.87
2018-09-14T16:48:24.101Z,21.50
2018-09-14T16:50:53.012Z,21.49
2018-09-14T16:53:21.939Z,21.40
2018-09-14T16:56:01.281Z,20.89
2018-09-14T16:58:30.269Z,20.52
2018-09-14T17:00:59.189Z,20.24
2018-09-14T17:03:28.230Z,19.97
2018-09-14T17:06:08.203Z,19.71
2018-09-14T17:08:37.241Z,19.60
2018-09-14T17:11:06.186Z,19.46
2018-09-14T17:13:35.223Z,19.21
2018-09-14T17:16:04.225Z,18.98
2018-09-14T17:18:33.147Z,18.80
2018-09-14T17:21:02.133Z,18.67
2018-09-14T17:23:31.086Z,18.51
2018-09-14T17:26:00.064Z,18.27
2018-09-14T17:28:29.009Z,18.15
2018-09-14T17:30:57.865Z,17.94
2018-09-14T17:33:26.927Z,17.80
2018-09-14T17:36:00.752Z,17.65
2018-09-14T17:38:29.703Z,17.50
2018-09-14T17:40:58.645Z,17.33
2018-09-14T17:43:27.744Z,17.28
2018-09-14T17:46:04.044Z,17.24
2018-09-14T17:48:33.029Z,17.11
2018-09-14T17:51:01.881Z,17.04
2018-09-14T17:53:30.807Z,17.00
2018-09-14T17:56:07.172Z,16.94
2018-09-14T17:58:36.067Z,16.72
2018-09-14T18:01:05.084Z,16.60
2018-09-14T18:03:34.009Z,16.47
2018-09-14T18:06:10.206Z,16.33
2018-09-14T18:08:39.125Z,16.07
2018-09-14T18:11:08.127Z,15.94
2018-09-14T18:13:37.171Z,15.94
2018-09-14T18:16:14.187Z,15.73
2018-09-14T18:18:43.092Z,15.54
2018-09-14T18:21:12.045Z,15.39
2018-09-14T18:23:40.947Z,15.26
2018-09-14T18:26:10.928Z,15.11
2018-09-14T18:28:39.965Z,14.94
2018-09-14T18:31:08.934Z,14.75
2018-09-14T18:33:37.871Z,14.57
2018-09-14T18:36:06.784Z,14.41
2018-09-14T18:38:35.717Z,14.30
2018-09-14T18:41:04.786Z,14.22
2018-09-14T18:43:33.748Z,14.43
2018-09-14T18:46:02.628Z,14.77
2018-09-14T18:48:31.565Z,15.03
2018-09-14T18:51:00.538Z,15.20
2018-09-14T18:53:29.367Z,15.34
2018-09-14T18:55:58.363Z,15.47
2018-09-14T18:58:32.859Z,15.63
2018-09-14T19:01:01.879Z,15.71
2018-09-14T19:03:30.844Z,15.72
2018-09-14T19:05:59.796Z,15.64
2018-09-14T19:08:36.816Z,15.52
2018-09-14T19:11:05.677Z,15.40
2018-09-14T19:13:34.678Z,15.30
2018-09-14T19:16:03.612Z,15.30
2018-09-14T19:18:32.486Z,15.28
2018-09-14T19:21:01.438Z,15.27
2018-09-14T19:23:30.256Z,15.23
2018-09-14T19:25:59.406Z,15.23
2018-09-14T19:28:41.059Z,15.19
2018-09-14T19:31:10.021Z,15.12
2018-09-14T19:33:38.995Z,15.04
2018-09-14T19:36:08.025Z,15.00
2018-09-14T19:38:37.085Z,14.99
2018-09-14T19:41:06.123Z,14.94
2018-09-14T19:43:34.976Z,14.87
2018-09-14T19:46:03.985Z,14.78
2018-09-14T19:48:33.938Z,14.67
2018-09-14T19:51:02.755Z,14.60
2018-09-14T19:53:31.691Z,14.70
2018-09-14T19:56:00.569Z,14.92
2018-09-14T19:58:29.472Z,15.19
2018-09-14T20:00:58.453Z,15.43
2018-09-14T20:03:27.237Z,15.56
2018-09-14T20:05:56.269Z,15.61
2018-09-14T20:08:32.949Z,15.63
2018-09-14T20:11:01.844Z,15.59
2018-09-14T20:13:30.696Z,15.57
2018-09-14T20:15:59.620Z,15.62
2018-09-14T20:18:28.503Z,15.69
2018-09-14T20:20:57.327Z,15.74
2018-09-14T20:23:26.240Z,15.79
2018-09-14T20:25:55.218Z,15.88
2018-09-14T20:28:24.157Z,15.87
2018-09-14T20:30:53.113Z,15.90
2018-09-14T20:33:22.103Z,15.91
2018-09-14T20:35:51.131Z,15.95
2018-09-14T20:38:20.072Z,16.00
2018-09-14T20:40:49.024Z,16.03
2018-09-14T20:43:17.912Z,16.05
2018-09-14T20:45:46.952Z,16.04
2018-09-14T20:48:15.832Z,16.05
2018-09-14T20:50:44.708Z,16.00
2018-09-14T20:53:13.572Z,15.97
2018-09-14T20:55:42.631Z,15.96
2018-09-14T20:58:11.594Z,15.94
2018-09-14T21:00:40.408Z,15.95
2018-09-14T21:03:09.311Z,15.95
2018-09-14T21:05:38.278Z,15.88
2018-09-14T21:08:07.308Z,15.81
2018-09-14T21:10:36.361Z,15.80
2018-09-14T21:13:05.308Z,15.79
2018-09-14T21:15:34.208Z,15.75
2018-09-14T21:18:03.208Z,15.74
2018-09-14T21:20:32.152Z,15.65
2018-09-14T21:23:00.972Z,15.56
2018-09-14T21:25:29.752Z,15.55
2018-09-14T21:27:58.936Z,15.61
2018-09-14T21:30:27.943Z,15.68
2018-09-14T21:32:56.953Z,15.68
2018-09-14T21:35:25.910Z,15.73
2018-09-14T21:37:54.768Z,15.80
2018-09-14T21:40:23.728Z,15.80
2018-09-14T21:42:52.554Z,15.83
2018-09-14T21:45:21.352Z,15.83
2018-09-14T21:47:53.870Z,15.68
2018-09-14T21:50:22.797Z,15.49
2018-09-14T21:52:51.682Z,15.39
2018-09-14T21:55:20.763Z,15.28
2018-09-14T21:57:49.646Z,15.14
2018-09-14T22:00:23.796Z,15.08
2018-09-14T22:02:52.818Z,15.01
2018-09-14T22:05:21.656Z,14.99
2018-09-14T22:07:50.504Z,14.93
2018-09-14T22:10:19.434Z,14.98
2018-09-14T22:12:48.477Z,14.98
2018-09-14T22:15:17.281Z,15.00
2018-09-14T22:17:46.245Z,14.95
2018-09-14T22:20:15.193Z,14.90
2018-09-14T22:22:44.009Z,14.76
2018-09-14T22:25:13.481Z,14.58
2018-09-14T22:27:42.617Z,14.53
2018-09-14T22:30:11.529Z,14.43
2018-09-14T22:32:40.444Z,14.38
2018-09-14T22:35:09.308Z,14.34
2018-09-14T22:37:38.257Z,14.34
2018-09-14T22:40:07.254Z,14.35
2018-09-14T22:42:36.327Z,14.36
2018-09-14T22:45:05.339Z,14.32
2018-09-14T22:47:34.338Z,14.25
2018-09-14T22:50:03.228Z,14.16
2018-09-14T22:52:32.107Z,14.10
2018-09-14T22:55:00.880Z,14.00
2018-09-14T22:57:32.763Z,13.90
2018-09-14T23:00:01.682Z,13.80
2018-09-14T23:02:30.606Z,13.69
2018-09-14T23:04:59.408Z,13.52
2018-09-14T23:07:28.392Z,13.47
2018-09-14T23:09:57.254Z,13.46
2018-09-14T23:12:26.242Z,13.43
2018-09-14T23:14:55.045Z,13.36
2018-09-14T23:17:24.038Z,13.28
2018-09-14T23:19:52.993Z,13.17
2018-09-14T23:22:21.900Z,13.11
2018-09-14T23:24:50.701Z,13.03
2018-09-14T23:27:19.661Z,12.96
2018-09-14T23:29:48.517Z,12.86
2018-09-14T23:32:17.352Z,12.81
2018-09-14T23:34:46.300Z,12.79
2018-09-14T23:37:15.199Z,12.72
2018-09-14T23:39:44.152Z,12.60
2018-09-14T23:42:12.944Z,12.51
2018-09-14T23:44:42.247Z,12.51
2018-09-14T23:47:11.174Z,12.56
2018-09-14T23:49:40.155Z,12.60
2018-09-14T23:52:09.071Z,12.64
2018-09-14T23:54:38.074Z,12.64
2018-09-14T23:57:06.950Z,12.63
2018-09-14T23:59:36.006Z,12.62
